sensor_id;sensor_type;location;lat;lon;timestamp;pressure;altitude;pressure_sealevel;temperature;humidity
77881;BME280;67077;50.298;18.996;2023-03-24T00:00:24;97418.69;;;13.67;55.05
77881;BME280;67077;50.298;18.996;2023-03-24T00:03:21;97417.77;;;13.68;55.13
77881;BME280;67077;50.298;18.996;2023-03-24T00:05:59;97415.71;;;13.69;54.98
77881;BME280;67077;50.298;18.996;2023-03-24T00:08:28;97412.23;;;13.69;55.04
77881;BME280;67077;50.298;18.996;2023-03-24T00:11:02;97410.94;;;13.69;55.06
77881;BME280;67077;50.298;18.996;2023-03-24T00:13:30;97410.82;;;13.69;55.03
77881;BME280;67077;50.298;18.996;2023-03-24T00:15:58;97405.06;;;13.68;55.12
77881;BME280;67077;50.298;18.996;2023-03-24T00:18:28;97403.75;;;13.68;55.21
77881;BME280;67077;50.298;18.996;2023-03-24T00:20:58;97406.78;;;13.66;55.20
77881;BME280;67077;50.298;18.996;2023-03-24T00:23:27;97403.58;;;13.65;55.21
77881;BME280;67077;50.298;18.996;2023-03-24T00:26:07;97402.20;;;13.65;55.24
77881;BME280;67077;50.298;18.996;2023-03-24T00:28:35;97402.10;;;13.66;55.24
77881;BME280;67077;50.298;18.996;2023-03-24T00:31:04;97403.09;;;13.66;55.33
77881;BME280;67077;50.298;18.996;2023-03-24T00:33:32;97401.67;;;13.66;55.35
77881;BME280;67077;50.298;18.996;2023-03-24T00:36:07;97404.98;;;13.66;55.44
77881;BME280;67077;50.298;18.996;2023-03-24T00:38:43;97400.48;;;13.67;55.29
77881;BME280;67077;50.298;18.996;2023-03-24T00:41:10;97406.84;;;13.66;55.38
77881;BME280;67077;50.298;18.996;2023-03-24T00:43:37;97396.73;;;13.66;55.49
77881;BME280;67077;50.298;18.996;2023-03-24T00:46:07;97391.63;;;13.66;55.46
77881;BME280;67077;50.298;18.996;2023-03-24T00:48:36;97388.21;;;13.67;55.39
77881;BME280;67077;50.298;18.996;2023-03-24T00:51:05;97384.30;;;13.67;55.45
77881;BME280;67077;50.298;18.996;2023-03-24T00:53:33;97381.70;;;13.66;55.52
77881;BME280;67077;50.298;18.996;2023-03-24T00:56:00;97375.27;;;13.66;55.57
77881;BME280;67077;50.298;18.996;2023-03-24T00:58:27;97371.79;;;13.65;55.57
77881;BME280;67077;50.298;18.996;2023-03-24T01:00:56;97367.16;;;13.63;55.70
77881;BME280;67077;50.298;18.996;2023-03-24T01:03:24;97364.73;;;13.62;55.73
77881;BME280;67077;50.298;18.996;2023-03-24T01:05:59;97364.08;;;13.61;55.74
77881;BME280;67077;50.298;18.996;2023-03-24T01:08:27;97359.77;;;13.61;55.77
77881;BME280;67077;50.298;18.996;2023-03-24T01:10:54;97354.34;;;13.60;55.86
77881;BME280;67077;50.298;18.996;2023-03-24T01:13:28;97350.91;;;13.60;55.77
77881;BME280;67077;50.298;18.996;2023-03-24T01:16:00;97348.04;;;13.60;55.84
77881;BME280;67077;50.298;18.996;2023-03-24T01:18:27;97344.67;;;13.60;55.91
77881;BME280;67077;50.298;18.996;2023-03-24T01:20:55;97345.88;;;13.61;55.90
77881;BME280;67077;50.298;18.996;2023-03-24T01:23:24;97344.95;;;13.61;55.91
77881;BME280;67077;50.298;18.996;2023-03-24T01:25:52;97344.04;;;13.62;55.85
77881;BME280;67077;50.298;18.996;2023-03-24T01:28:22;97346.05;;;13.62;55.91
77881;BME280;67077;50.298;18.996;2023-03-24T01:30:51;97345.34;;;13.62;55.92
77881;BME280;67077;50.298;18.996;2023-03-24T01:33:19;97343.21;;;13.62;55.86
77881;BME280;67077;50.298;18.996;2023-03-24T01:35:47;97342.84;;;13.61;55.92
77881;BME280;67077;50.298;18.996;2023-03-24T01:38:14;97338.98;;;13.61;56.01
77881;BME280;67077;50.298;18.996;2023-03-24T01:40:44;97341.58;;;13.61;55.98
77881;BME280;67077;50.298;18.996;2023-03-24T01:43:18;97340.66;;;13.61;55.94
77881;BME280;67077;50.298;18.996;2023-03-24T01:48:32;97341.20;;;13.61;55.94
77881;BME280;67077;50.298;18.996;2023-03-24T01:51:07;97338.33;;;13.62;55.90
77881;BME280;67077;50.298;18.996;2023-03-24T01:53:39;97339.15;;;13.62;55.92
77881;BME280;67077;50.298;18.996;2023-03-24T01:56:09;97337.73;;;13.62;55.80
77881;BME280;67077;50.298;18.996;2023-03-24T01:58:40;97335.45;;;13.61;55.85
77881;BME280;67077;50.298;18.996;2023-03-24T02:01:07;97338.71;;;13.61;55.81
77881;BME280;67077;50.298;18.996;2023-03-24T02:03:34;97332.48;;;13.62;55.80
77881;BME280;67077;50.298;18.996;2023-03-24T02:06:06;97336.22;;;13.62;55.82
77881;BME280;67077;50.298;18.996;2023-03-24T02:08:51;97332.14;;;13.62;55.78
77881;BME280;67077;50.298;18.996;2023-03-24T02:11:22;97332.58;;;13.62;55.76
77881;BME280;67077;50.298;18.996;2023-03-24T02:13:50;97329.86;;;13.61;55.79
77881;BME280;67077;50.298;18.996;2023-03-24T02:42:20;97313.12;;;13.53;55.84
77881;BME280;67077;50.298;18.996;2023-03-24T02:50:48;97304.61;;;13.49;55.92
77881;BME280;67077;50.298;18.996;2023-03-24T02:53:26;97307.62;;;13.47;55.97
77881;BME280;67077;50.298;18.996;2023-03-24T02:56:10;97305.80;;;13.46;56.04
77881;BME280;67077;50.298;18.996;2023-03-24T02:58:51;97301.73;;;13.45;56.11
77881;BME280;67077;50.298;18.996;2023-03-24T03:04:02;97302.99;;;13.40;56.43
77881;BME280;67077;50.298;18.996;2023-03-24T03:06:35;97296.77;;;13.37;56.60
77881;BME280;67077;50.298;18.996;2023-03-24T03:09:09;97299.14;;;13.34;56.71
77881;BME280;67077;50.298;18.996;2023-03-24T03:11:41;97301.60;;;13.32;57.02
77881;BME280;67077;50.298;18.996;2023-03-24T03:14:33;97305.60;;;13.30;57.30
77881;BME280;67077;50.298;18.996;2023-03-24T03:17:09;97305.85;;;13.28;57.70
77881;BME280;67077;50.298;18.996;2023-03-24T03:19:41;97307.99;;;13.25;58.09
77881;BME280;67077;50.298;18.996;2023-03-24T03:22:14;97308.51;;;13.22;58.39
77881;BME280;67077;50.298;18.996;2023-03-24T03:24:44;97306.30;;;13.19;58.59
77881;BME280;67077;50.298;18.996;2023-03-24T03:27:23;97304.10;;;13.16;58.88
77881;BME280;67077;50.298;18.996;2023-03-24T03:29:57;97306.95;;;13.12;59.28
77881;BME280;67077;50.298;18.996;2023-03-24T03:32:32;97304.21;;;13.09;59.61
77881;BME280;67077;50.298;18.996;2023-03-24T03:35:12;97303.89;;;13.04;59.87
77881;BME280;67077;50.298;18.996;2023-03-24T03:37:51;97304.96;;;13.00;60.23
77881;BME280;67077;50.298;18.996;2023-03-24T03:43:02;97308.06;;;12.96;60.98
77881;BME280;67077;50.298;18.996;2023-03-24T03:45:32;97304.39;;;12.97;61.07
77881;BME280;67077;50.298;18.996;2023-03-24T03:48:00;97305.33;;;12.99;61.27
77881;BME280;67077;50.298;18.996;2023-03-24T03:50:28;97305.66;;;12.99;61.41
77881;BME280;67077;50.298;18.996;2023-03-24T03:52:56;97306.95;;;12.98;61.69
77881;BME280;67077;50.298;18.996;2023-03-24T03:55:24;97303.06;;;12.95;61.71
77881;BME280;67077;50.298;18.996;2023-03-24T03:57:53;97304.41;;;12.94;61.85
77881;BME280;67077;50.298;18.996;2023-03-24T04:00:21;97300.75;;;12.91;62.05
77881;BME280;67077;50.298;18.996;2023-03-24T04:08:55;97294.15;;;12.80;62.33
77881;BME280;67077;50.298;18.996;2023-03-24T04:27:59;97291.05;;;12.75;63.71
77881;BME280;67077;50.298;18.996;2023-03-24T04:33:17;97296.45;;;12.65;64.10
77881;BME280;67077;50.298;18.996;2023-03-24T04:35:52;97301.38;;;12.60;64.20
77881;BME280;67077;50.298;18.996;2023-03-24T04:38:25;97298.77;;;12.55;64.48
77881;BME280;67077;50.298;18.996;2023-03-24T04:40:55;97298.16;;;12.50;64.72
77881;BME280;67077;50.298;18.996;2023-03-24T04:43:26;97295.88;;;12.46;64.86
77881;BME280;67077;50.298;18.996;2023-03-24T04:45:55;97289.61;;;12.43;65.21
77881;BME280;67077;50.298;18.996;2023-03-24T04:48:23;97292.44;;;12.42;65.24
77881;BME280;67077;50.298;18.996;2023-03-24T04:50:56;97295.98;;;12.42;65.27
77881;BME280;67077;50.298;18.996;2023-03-24T04:53:24;97297.59;;;12.41;65.51
77881;BME280;67077;50.298;18.996;2023-03-24T04:58:30;97283.02;;;12.34;66.03
77881;BME280;67077;50.298;18.996;2023-03-24T05:00:57;97276.86;;;12.31;66.43
77881;BME280;67077;50.298;18.996;2023-03-24T05:03:27;97274.08;;;12.28;66.44
77881;BME280;67077;50.298;18.996;2023-03-24T05:05:56;97273.84;;;12.27;66.83
77881;BME280;67077;50.298;18.996;2023-03-24T05:08:25;97281.34;;;12.29;67.15
77881;BME280;67077;50.298;18.996;2023-03-24T05:10:52;97280.73;;;12.28;67.42
77881;BME280;67077;50.298;18.996;2023-03-24T05:13:19;97279.86;;;12.25;67.71
77881;BME280;67077;50.298;18.996;2023-03-24T05:15:46;97279.21;;;12.22;67.88
77881;BME280;67077;50.298;18.996;2023-03-24T05:18:13;97277.66;;;12.19;67.99
77881;BME280;67077;50.298;18.996;2023-03-24T05:20:41;97278.46;;;12.17;68.18
77881;BME280;67077;50.298;18.996;2023-03-24T05:23:08;97277.81;;;12.18;68.41
77881;BME280;67077;50.298;18.996;2023-03-24T05:25:35;97274.95;;;12.19;68.78
77881;BME280;67077;50.298;18.996;2023-03-24T05:28:02;97274.23;;;12.17;69.03
77881;BME280;67077;50.298;18.996;2023-03-24T05:30:29;97267.69;;;12.14;69.41
77881;BME280;67077;50.298;18.996;2023-03-24T05:32:57;97267.15;;;12.11;69.70
77881;BME280;67077;50.298;18.996;2023-03-24T05:35:24;97269.05;;;12.09;70.24
77881;BME280;67077;50.298;18.996;2023-03-24T05:37:51;97269.55;;;12.06;70.73
77881;BME280;67077;50.298;18.996;2023-03-24T05:40:19;97273.03;;;12.02;71.07
77881;BME280;67077;50.298;18.996;2023-03-24T05:42:50;97269.41;;;11.98;71.38
77881;BME280;67077;50.298;18.996;2023-03-24T05:45:17;97267.71;;;11.97;71.44
77881;BME280;67077;50.298;18.996;2023-03-24T05:47:46;97265.67;;;11.99;71.77
77881;BME280;67077;50.298;18.996;2023-03-24T05:50:13;97263.83;;;11.99;71.89
77881;BME280;67077;50.298;18.996;2023-03-24T05:52:41;97268.35;;;11.96;72.09
77881;BME280;67077;50.298;18.996;2023-03-24T05:55:09;97266.48;;;11.92;72.47
77881;BME280;67077;50.298;18.996;2023-03-24T05:57:36;97262.05;;;11.88;72.64
77881;BME280;67077;50.298;18.996;2023-03-24T06:00:05;97268.48;;;11.89;72.89
77881;BME280;67077;50.298;18.996;2023-03-24T06:02:35;97271.30;;;11.88;72.97
77881;BME280;67077;50.298;18.996;2023-03-24T06:05:02;97267.46;;;11.88;72.83
77881;BME280;67077;50.298;18.996;2023-03-24T06:07:29;97268.26;;;11.87;73.06
77881;BME280;67077;50.298;18.996;2023-03-24T06:09:56;97267.45;;;11.87;73.14
77881;BME280;67077;50.298;18.996;2023-03-24T06:12:23;97264.38;;;11.88;73.15
77881;BME280;67077;50.298;18.996;2023-03-24T06:14:50;97261.01;;;11.88;73.08
77881;BME280;67077;50.298;18.996;2023-03-24T06:17:17;97263.55;;;11.88;73.32
77881;BME280;67077;50.298;18.996;2023-03-24T06:19:44;97263.98;;;11.87;73.51
77881;BME280;67077;50.298;18.996;2023-03-24T06:22:16;97261.86;;;11.90;73.33
77881;BME280;67077;50.298;18.996;2023-03-24T06:24:43;97265.60;;;11.94;73.30
77881;BME280;67077;50.298;18.996;2023-03-24T06:27:10;97260.89;;;11.94;73.47
77881;BME280;67077;50.298;18.996;2023-03-24T06:29:37;97264.61;;;11.93;73.51
77881;BME280;67077;50.298;18.996;2023-03-24T06:32:04;97265.09;;;11.93;73.55
77881;BME280;67077;50.298;18.996;2023-03-24T06:34:30;97266.25;;;11.97;73.44
77881;BME280;67077;50.298;18.996;2023-03-24T06:36:57;97264.24;;;12.01;73.35
77881;BME280;67077;50.298;18.996;2023-03-24T06:39:24;97264.64;;;12.03;73.39
77881;BME280;67077;50.298;18.996;2023-03-24T06:41:51;97265.36;;;12.04;73.49
77881;BME280;67077;50.298;18.996;2023-03-24T06:44:18;97267.79;;;12.08;73.32
77881;BME280;67077;50.298;18.996;2023-03-24T06:46:44;97269.66;;;12.12;73.00
77881;BME280;67077;50.298;18.996;2023-03-24T06:49:12;97267.28;;;12.16;72.68
77881;BME280;67077;50.298;18.996;2023-03-24T06:51:39;97260.46;;;12.17;72.60
77881;BME280;67077;50.298;18.996;2023-03-24T06:54:05;97255.08;;;12.19;72.64
77881;BME280;67077;50.298;18.996;2023-03-24T06:56:32;97254.25;;;12.23;72.66
77881;BME280;67077;50.298;18.996;2023-03-24T06:59:00;97252.19;;;12.29;72.49
77881;BME280;67077;50.298;18.996;2023-03-24T07:01:27;97250.47;;;12.35;72.30
77881;BME280;67077;50.298;18.996;2023-03-24T07:03:53;97250.05;;;12.36;72.13
77881;BME280;67077;50.298;18.996;2023-03-24T07:06:21;97254.07;;;12.37;72.12
77881;BME280;67077;50.298;18.996;2023-03-24T07:08:49;97251.30;;;12.41;71.86
77881;BME280;67077;50.298;18.996;2023-03-24T07:11:15;97254.12;;;12.48;71.73
77881;BME280;67077;50.298;18.996;2023-03-24T07:13:42;97255.87;;;12.55;71.43
77881;BME280;67077;50.298;18.996;2023-03-24T07:16:09;97254.10;;;12.60;71.26
77881;BME280;67077;50.298;18.996;2023-03-24T07:18:36;97257.27;;;12.62;71.06
77881;BME280;67077;50.298;18.996;2023-03-24T07:21:02;97254.76;;;12.65;71.05
77881;BME280;67077;50.298;18.996;2023-03-24T07:23:29;97257.06;;;12.68;70.60
77881;BME280;67077;50.298;18.996;2023-03-24T07:25:58;97255.45;;;12.72;70.41
77881;BME280;67077;50.298;18.996;2023-03-24T07:28:25;97257.95;;;12.77;70.13
77881;BME280;67077;50.298;18.996;2023-03-24T07:30:52;97258.86;;;12.83;70.04
77881;BME280;67077;50.298;18.996;2023-03-24T07:33:19;97260.10;;;12.86;69.95
77881;BME280;67077;50.298;18.996;2023-03-24T07:35:46;97258.20;;;12.89;69.89
77881;BME280;67077;50.298;18.996;2023-03-24T07:38:12;97252.70;;;12.94;69.76
77881;BME280;67077;50.298;18.996;2023-03-24T07:40:39;97251.71;;;13.02;69.70
77881;BME280;67077;50.298;18.996;2023-03-24T07:43:05;97251.94;;;13.08;69.69
77881;BME280;67077;50.298;18.996;2023-03-24T07:45:32;97247.82;;;13.18;70.66
77881;BME280;67077;50.298;18.996;2023-03-24T07:47:59;97247.65;;;13.37;70.81
77881;BME280;67077;50.298;18.996;2023-03-24T07:50:28;97240.94;;;13.66;70.76
77881;BME280;67077;50.298;18.996;2023-03-24T07:52:54;97234.45;;;13.91;68.75
77881;BME280;67077;50.298;18.996;2023-03-24T07:55:21;97232.80;;;14.03;67.94
77881;BME280;67077;50.298;18.996;2023-03-24T07:57:48;97232.63;;;14.10;67.25
77881;BME280;67077;50.298;18.996;2023-03-24T08:00:18;97227.84;;;14.10;66.54
77881;BME280;67077;50.298;18.996;2023-03-24T08:02:50;97227.37;;;14.06;66.38
77881;BME280;67077;50.298;18.996;2023-03-24T08:05:21;97227.31;;;14.06;66.38
77881;BME280;67077;50.298;18.996;2023-03-24T08:07:50;97227.75;;;14.07;66.43
77881;BME280;67077;50.298;18.996;2023-03-24T08:10:23;97225.16;;;14.08;66.29
77881;BME280;67077;50.298;18.996;2023-03-24T08:12:51;97222.05;;;14.14;65.90
77881;BME280;67077;50.298;18.996;2023-03-24T08:15:18;97222.95;;;14.21;65.96
77881;BME280;67077;50.298;18.996;2023-03-24T08:17:46;97217.68;;;14.29;65.64
77881;BME280;67077;50.298;18.996;2023-03-24T08:20:13;97213.08;;;14.37;65.48
77881;BME280;67077;50.298;18.996;2023-03-24T08:22:43;97214.94;;;14.45;65.13
77881;BME280;67077;50.298;18.996;2023-03-24T08:25:19;97216.63;;;14.56;64.82
77881;BME280;67077;50.298;18.996;2023-03-24T08:27:46;97217.66;;;14.67;64.59
77881;BME280;67077;50.298;18.996;2023-03-24T08:30:16;97216.30;;;14.84;64.33
77881;BME280;67077;50.298;18.996;2023-03-24T08:32:46;97212.60;;;15.06;63.99
77881;BME280;67077;50.298;18.996;2023-03-24T08:35:14;97213.30;;;15.27;63.21
77881;BME280;67077;50.298;18.996;2023-03-24T08:37:41;97207.86;;;15.47;62.45
77881;BME280;67077;50.298;18.996;2023-03-24T08:40:13;97204.30;;;15.66;61.65
77881;BME280;67077;50.298;18.996;2023-03-24T08:42:46;97199.70;;;15.82;61.07
77881;BME280;67077;50.298;18.996;2023-03-24T08:45:15;97199.30;;;16.00;61.13
77881;BME280;67077;50.298;18.996;2023-03-24T08:47:42;97194.13;;;16.23;60.89
77881;BME280;67077;50.298;18.996;2023-03-24T08:50:10;97195.39;;;16.50;60.43
77881;BME280;67077;50.298;18.996;2023-03-24T08:52:38;97188.66;;;16.73;59.21
77881;BME280;67077;50.298;18.996;2023-03-24T08:55:07;97182.66;;;16.93;58.57
77881;BME280;67077;50.298;18.996;2023-03-24T08:57:36;97177.27;;;17.11;57.84
77881;BME280;67077;50.298;18.996;2023-03-24T09:00:06;97175.44;;;17.22;56.70
77881;BME280;67077;50.298;18.996;2023-03-24T09:02:48;97171.77;;;17.31;55.85
77881;BME280;67077;50.298;18.996;2023-03-24T09:05:17;97163.59;;;17.36;55.62
77881;BME280;67077;50.298;18.996;2023-03-24T09:07:48;97160.89;;;17.45;55.55
77881;BME280;67077;50.298;18.996;2023-03-24T09:10:18;97157.09;;;17.50;55.19
77881;BME280;67077;50.298;18.996;2023-03-24T09:12:45;97155.49;;;17.56;54.51
77881;BME280;67077;50.298;18.996;2023-03-24T09:15:12;97154.55;;;17.58;54.34
77881;BME280;67077;50.298;18.996;2023-03-24T09:17:40;97151.48;;;17.59;54.53
77881;BME280;67077;50.298;18.996;2023-03-24T09:20:10;97153.90;;;17.64;54.42
77881;BME280;67077;50.298;18.996;2023-03-24T09:22:39;97149.70;;;17.71;54.10
77881;BME280;67077;50.298;18.996;2023-03-24T09:25:08;97148.38;;;17.80;53.15
77881;BME280;67077;50.298;18.996;2023-03-24T09:27:36;97142.77;;;17.86;53.26
77881;BME280;67077;50.298;18.996;2023-03-24T09:30:06;97138.77;;;17.99;53.32
77881;BME280;67077;50.298;18.996;2023-03-24T09:32:35;97137.75;;;18.17;52.85
77881;BME280;67077;50.298;18.996;2023-03-24T09:35:03;97131.39;;;18.32;51.87
77881;BME280;67077;50.298;18.996;2023-03-24T09:37:32;97129.89;;;18.47;51.34
77881;BME280;67077;50.298;18.996;2023-03-24T09:39:59;97128.13;;;18.61;50.77
77881;BME280;67077;50.298;18.996;2023-03-24T09:42:49;97126.51;;;18.70;50.19
77881;BME280;67077;50.298;18.996;2023-03-24T09:45:21;97128.80;;;18.81;50.67
77881;BME280;67077;50.298;18.996;2023-03-24T09:47:56;97127.14;;;18.88;50.09
77881;BME280;67077;50.298;18.996;2023-03-24T09:50:34;97122.84;;;18.95;49.73
77881;BME280;67077;50.298;18.996;2023-03-24T09:56:21;97110.65;;;19.05;49.33
77881;BME280;67077;50.298;18.996;2023-03-24T09:59:04;97111.79;;;19.06;48.93
77881;BME280;67077;50.298;18.996;2023-03-24T10:01:33;97107.95;;;19.13;49.21
77881;BME280;67077;50.298;18.996;2023-03-24T10:04:03;97108.38;;;19.19;49.02
77881;BME280;67077;50.298;18.996;2023-03-24T10:06:37;97104.79;;;19.20;48.53
77881;BME280;67077;50.298;18.996;2023-03-24T10:09:52;97106.01;;;19.19;48.48
77881;BME280;67077;50.298;18.996;2023-03-24T10:12:39;97110.20;;;19.20;48.72
77881;BME280;67077;50.298;18.996;2023-03-24T10:15:47;97107.09;;;19.29;48.57
77881;BME280;67077;50.298;18.996;2023-03-24T10:30:25;97095.58;;;19.79;46.36
77881;BME280;67077;50.298;18.996;2023-03-24T10:32:53;97093.29;;;19.87;45.10
77881;BME280;67077;50.298;18.996;2023-03-24T10:35:24;97093.40;;;19.92;44.64
77881;BME280;67077;50.298;18.996;2023-03-24T10:37:57;97088.10;;;19.91;44.43
77881;BME280;67077;50.298;18.996;2023-03-24T10:40:30;97088.45;;;19.90;44.08
77881;BME280;67077;50.298;18.996;2023-03-24T10:43:06;97088.70;;;19.82;43.76
77881;BME280;67077;50.298;18.996;2023-03-24T10:45:35;97088.25;;;19.81;44.11
77881;BME280;67077;50.298;18.996;2023-03-24T10:48:04;97080.41;;;19.81;43.57
77881;BME280;67077;50.298;18.996;2023-03-24T10:50:41;97078.90;;;19.76;43.41
77881;BME280;67077;50.298;18.996;2023-03-24T10:53:16;97079.27;;;19.73;43.44
77881;BME280;67077;50.298;18.996;2023-03-24T10:55:45;97081.03;;;19.70;43.44
77881;BME280;67077;50.298;18.996;2023-03-24T10:58:25;97086.48;;;19.72;43.74
77881;BME280;67077;50.298;18.996;2023-03-24T11:00:58;97078.35;;;19.79;43.41
77881;BME280;67077;50.298;18.996;2023-03-24T11:03:31;97079.83;;;19.84;43.32
77881;BME280;67077;50.298;18.996;2023-03-24T11:06:02;97074.40;;;19.93;43.29
77881;BME280;67077;50.298;18.996;2023-03-24T11:08:40;97069.58;;;20.01;43.21
77881;BME280;67077;50.298;18.996;2023-03-24T11:11:26;97067.14;;;20.05;43.51
77881;BME280;67077;50.298;18.996;2023-03-24T11:14:00;97061.96;;;20.14;43.59
77881;BME280;67077;50.298;18.996;2023-03-24T11:16:30;97056.64;;;20.26;43.10
77881;BME280;67077;50.298;18.996;2023-03-24T11:19:04;97051.73;;;20.31;42.82
77881;BME280;67077;50.298;18.996;2023-03-24T11:21:36;97049.77;;;20.30;42.68
77881;BME280;67077;50.298;18.996;2023-03-24T11:24:12;97043.91;;;20.33;42.45
77881;BME280;67077;50.298;18.996;2023-03-24T11:29:14;97035.09;;;20.40;42.41
77881;BME280;67077;50.298;18.996;2023-03-24T11:31:50;97037.75;;;20.42;42.17
77881;BME280;67077;50.298;18.996;2023-03-24T11:34:43;97032.88;;;20.42;41.99
77881;BME280;67077;50.298;18.996;2023-03-24T11:37:34;97024.44;;;20.43;41.64
77881;BME280;67077;50.298;18.996;2023-03-24T11:42:52;97013.30;;;20.33;41.48
77881;BME280;67077;50.298;18.996;2023-03-24T11:45:36;97004.52;;;20.27;41.27
77881;BME280;67077;50.298;18.996;2023-03-24T11:51:43;97004.11;;;20.08;41.05
77881;BME280;67077;50.298;18.996;2023-03-24T11:54:23;97001.26;;;20.04;40.97
77881;BME280;67077;50.298;18.996;2023-03-24T12:00:35;96997.34;;;19.96;41.72
77881;BME280;67077;50.298;18.996;2023-03-24T12:12:17;96990.47;;;19.96;41.18
77881;BME280;67077;50.298;18.996;2023-03-24T12:17:30;96988.48;;;19.78;41.71
77881;BME280;67077;50.298;18.996;2023-03-24T12:20:43;96986.23;;;19.78;41.97
77881;BME280;67077;50.298;18.996;2023-03-24T12:24:06;96979.20;;;19.77;41.67
77881;BME280;67077;50.298;18.996;2023-03-24T12:26:40;96979.18;;;19.80;42.14
77881;BME280;67077;50.298;18.996;2023-03-24T12:32:08;96979.33;;;19.88;42.16
77881;BME280;67077;50.298;18.996;2023-03-24T12:49:48;96960.98;;;19.53;43.14
77881;BME280;67077;50.298;18.996;2023-03-24T13:03:58;96950.89;;;19.16;44.38
77881;BME280;67077;50.298;18.996;2023-03-24T13:06:43;96947.20;;;19.13;44.56
77881;BME280;67077;50.298;18.996;2023-03-24T13:09:18;96945.67;;;19.13;44.16
77881;BME280;67077;50.298;18.996;2023-03-24T13:12:14;96940.95;;;19.10;44.14
77881;BME280;67077;50.298;18.996;2023-03-24T13:17:29;96939.13;;;19.06;44.53
77881;BME280;67077;50.298;18.996;2023-03-24T13:20:04;96936.14;;;19.04;44.46
77881;BME280;67077;50.298;18.996;2023-03-24T13:22:33;96937.23;;;19.01;44.41
77881;BME280;67077;50.298;18.996;2023-03-24T13:25:16;96933.45;;;18.95;44.41
77881;BME280;67077;50.298;18.996;2023-03-24T13:27:49;96931.20;;;18.87;44.49
77881;BME280;67077;50.298;18.996;2023-03-24T13:30:40;96932.20;;;18.82;44.81
77881;BME280;67077;50.298;18.996;2023-03-24T13:33:24;96928.56;;;18.77;44.82
77881;BME280;67077;50.298;18.996;2023-03-24T13:38:50;96924.80;;;18.70;44.75
77881;BME280;67077;50.298;18.996;2023-03-24T13:41:23;96922.97;;;18.68;45.07
77881;BME280;67077;50.298;18.996;2023-03-24T13:44:14;96920.58;;;18.67;45.05
77881;BME280;67077;50.298;18.996;2023-03-24T13:49:39;96914.71;;;18.64;45.12
77881;BME280;67077;50.298;18.996;2023-03-24T13:52:26;96913.67;;;18.63;45.01
77881;BME280;67077;50.298;18.996;2023-03-24T13:54:58;96912.53;;;18.63;45.13
77881;BME280;67077;50.298;18.996;2023-03-24T13:57:27;96910.38;;;18.63;45.03
77881;BME280;67077;50.298;18.996;2023-03-24T14:11:09;96903.30;;;18.47;45.85
77881;BME280;67077;50.298;18.996;2023-03-24T14:17:01;96897.34;;;18.41;45.95
77881;BME280;67077;50.298;18.996;2023-03-24T14:22:13;96893.73;;;18.28;46.22
77881;BME280;67077;50.298;18.996;2023-03-24T14:25:24;96883.98;;;18.25;46.39
77881;BME280;67077;50.298;18.996;2023-03-24T14:28:10;96878.54;;;18.23;45.67
77881;BME280;67077;50.298;18.996;2023-03-24T14:36:32;96869.95;;;18.22;45.46
77881;BME280;67077;50.298;18.996;2023-03-24T14:39:33;96864.50;;;18.20;45.08
77881;BME280;67077;50.298;18.996;2023-03-24T14:44:55;96853.77;;;18.18;44.75
77881;BME280;67077;50.298;18.996;2023-03-24T14:50:25;96854.80;;;18.17;42.63
77881;BME280;67077;50.298;18.996;2023-03-24T14:53:02;96857.24;;;18.16;41.90
77881;BME280;67077;50.298;18.996;2023-03-24T14:55:33;96860.17;;;18.14;41.51
77881;BME280;67077;50.298;18.996;2023-03-24T14:58:25;96855.02;;;18.12;41.54
77881;BME280;67077;50.298;18.996;2023-03-24T15:01:15;96859.17;;;18.10;41.76
77881;BME280;67077;50.298;18.996;2023-03-24T15:04:09;96855.46;;;18.04;42.23
77881;BME280;67077;50.298;18.996;2023-03-24T15:07:02;96858.55;;;18.00;43.24
77881;BME280;67077;50.298;18.996;2023-03-24T15:09:30;96855.54;;;17.92;42.39
77881;BME280;67077;50.298;18.996;2023-03-24T15:12:07;96849.27;;;17.87;42.90
77881;BME280;67077;50.298;18.996;2023-03-24T15:14:39;96847.40;;;17.81;41.94
77881;BME280;67077;50.298;18.996;2023-03-24T15:17:18;96845.34;;;17.74;42.36
77881;BME280;67077;50.298;18.996;2023-03-24T15:19:52;96838.83;;;17.69;41.98
77881;BME280;67077;50.298;18.996;2023-03-24T15:22:25;96838.11;;;17.64;42.05
77881;BME280;67077;50.298;18.996;2023-03-24T15:27:57;96838.39;;;17.55;42.37
77881;BME280;67077;50.298;18.996;2023-03-24T15:30:42;96841.84;;;17.50;42.35
77881;BME280;67077;50.298;18.996;2023-03-24T15:33:13;96845.16;;;17.46;42.31
77881;BME280;67077;50.298;18.996;2023-03-24T15:35:43;96851.55;;;17.42;43.23
77881;BME280;67077;50.298;18.996;2023-03-24T15:38:27;96850.23;;;17.35;44.16
77881;BME280;67077;50.298;18.996;2023-03-24T15:41:03;96855.77;;;17.25;44.68
77881;BME280;67077;50.298;18.996;2023-03-24T15:43:44;96859.51;;;17.13;45.65
77881;BME280;67077;50.298;18.996;2023-03-24T15:51:48;96871.13;;;16.75;48.05
77881;BME280;67077;50.298;18.996;2023-03-24T15:54:25;96872.00;;;16.59;49.51
77881;BME280;67077;50.298;18.996;2023-03-24T15:59:48;96874.40;;;16.29;50.61
77881;BME280;67077;50.298;18.996;2023-03-24T16:02:19;96869.37;;;16.16;50.46
77881;BME280;67077;50.298;18.996;2023-03-24T16:04:48;96872.39;;;16.05;50.87
77881;BME280;67077;50.298;18.996;2023-03-24T16:07:21;96874.38;;;15.95;51.76
77881;BME280;67077;50.298;18.996;2023-03-24T16:10:05;96875.05;;;15.84;52.19
77881;BME280;67077;50.298;18.996;2023-03-24T16:12:53;96874.46;;;15.71;53.26
77881;BME280;67077;50.298;18.996;2023-03-24T16:18:48;96883.77;;;15.38;55.81
77881;BME280;67077;50.298;18.996;2023-03-24T16:21:23;96889.66;;;15.23;56.70
77881;BME280;67077;50.298;18.996;2023-03-24T16:23:52;96893.45;;;15.09;57.33
77881;BME280;67077;50.298;18.996;2023-03-24T16:26:25;96894.89;;;14.97;57.64